Etusivu
METAR-TAF:

METAR-TAF

Lentoasemat :

Fort Wayne, Indiana, Yhdysvallat

Leveyspiiri: 40-58-42N, Pituuspiiri: 085-11-43W, korkeus merenpinnasta: 248 m

Tämänhetkinen sää

Tämä raportti tehtiin 40 minuuttia sitten, kello 19.54 UTC
Tuuli 5 kn idästä/kaakosta
Lämpötila 5°C
Kosteus 93%
Ilmanpaine 1009 hPa
Näkyvyys: 8.0 km
Pilvistä 500 ft:n korkeudessa
heikkoa sadetta, utua

METAR: KFWA 241954Z 12005KT 5SM -RA BR OVC005 05/04 A2979 RMK AO2 SLP094 P0002 T00500044

Aika: 15:34 (20:34 UTC)

Sääennuste

Tämä raportti tehtiin 3 tuntia ja 14 minuuttia sitten, kello 17.20 UTC
Ennuste voimassa 24. päivästä klo 18 UTC - 25. päivään klo 18 UTC
Tuuli 9 kn idästä
Näkyvyys: 4.8 km
Pilvistä 600 ft:n korkeudessa
heikkoa sadetta, utua
From 25. päivästä klo 0300 UTC
Tuuli 6 kn etelästä
Näkyvyys: 3.2 km
Pilvistä 500 ft:n korkeudessa
heikkoa sadetta, lumisadetta, utua

TAF: KFWA 241720Z 2418/2518 10009KT 3SM -RA BR OVC006 FM250300 19006KT 2SM -RASN BR OVC005

Säähavainnot ja -ennusteet yli 4000 lentoasemalta (METAR- ja TAF-raportit).

Käytössä olevat sääasemat on merkitty karttaan keltaisilla ja punaisilla pisteillä.

Aseta hiiri pisteen päälle nähdäksesi sääaseman nimen.

Klikkaa sitten nähdäksesi säähavainnot ja -ennusteet.

Kartan vaihtaminen: klikkaa mustalla rastilla varustettuja vihreitä pisteitä, niin voit zoomata sisään; viivalla varustettua vihreää pistettä, niin voit zoomata ulos tai vihreitä nuolia, niin pääset viereisille kartoille.


METAR-TAF: